createdAt,value
2022-08-05T00:00:18.376Z,26.60
2022-08-05T00:02:50.707Z,26.60
2022-08-05T00:06:01.740Z,26.60
2022-08-05T00:08:34.269Z,26.50
2022-08-05T00:11:00.938Z,26.50
2022-08-05T00:13:39.258Z,26.50
2022-08-05T00:16:12.622Z,26.40
2022-08-05T00:18:42.499Z,26.40
2022-08-05T00:21:14.561Z,26.40
2022-08-05T00:23:46.915Z,26.30
2022-08-05T00:26:22.379Z,26.30
2022-08-05T00:28:50.892Z,26.20
2022-08-05T00:31:54.400Z,26.20
2022-08-05T00:34:56.799Z,26.20
2022-08-05T00:37:11.598Z,26.20
2022-08-05T00:39:44.422Z,26.20
2022-08-05T00:42:40.173Z,26.20
2022-08-05T00:45:13.397Z,26.10
2022-08-05T00:47:56.234Z,26.10
2022-08-05T00:50:25.285Z,26.10
2022-08-05T00:52:55.340Z,26.10
2022-08-05T00:55:42.487Z,26.00
2022-08-05T00:58:12.566Z,26.00
2022-08-05T01:00:40.961Z,26.00
2022-08-05T01:03:22.406Z,26.00
2022-08-05T01:05:51.592Z,26.00
2022-08-05T01:08:30.705Z,25.90
2022-08-05T01:11:22.670Z,25.90
2022-08-05T01:13:59.985Z,25.90
2022-08-05T01:16:48.825Z,25.90
2022-08-05T01:20:02.184Z,25.80
2022-08-05T01:22:24.353Z,25.80
2022-08-05T01:25:10.198Z,25.80
2022-08-05T01:28:02.741Z,25.80
2022-08-05T01:30:35.243Z,25.80
2022-08-05T01:33:09.374Z,25.70
2022-08-05T01:35:52.037Z,25.70
2022-08-05T01:38:27.180Z,25.70
2022-08-05T01:41:01.457Z,25.70
2022-08-05T01:43:30.771Z,25.60
2022-08-05T01:46:07.122Z,25.60
2022-08-05T01:48:49.732Z,25.60
2022-08-05T01:51:19.095Z,25.50
2022-08-05T01:53:57.326Z,25.50
2022-08-05T01:58:10.464Z,25.50
2022-08-05T01:59:27.811Z,25.40
2022-08-05T02:02:00.818Z,25.40
2022-08-05T02:04:33.443Z,25.40
2022-08-05T02:07:00.769Z,25.40
2022-08-05T02:09:31.144Z,25.40
2022-08-05T02:12:02.310Z,25.30
2022-08-05T02:14:34.378Z,25.30
2022-08-05T02:17:17.073Z,25.30
2022-08-05T02:20:04.309Z,25.30
2022-08-05T02:22:39.129Z,25.30
2022-08-05T02:25:18.743Z,25.20
2022-08-05T02:27:59.428Z,25.20
2022-08-05T02:30:34.427Z,25.20
2022-08-05T02:33:03.890Z,25.20
2022-08-05T02:35:38.515Z,25.20
2022-08-05T02:38:19.955Z,25.10
2022-08-05T02:40:47.646Z,25.10
2022-08-05T02:43:16.829Z,25.10
2022-08-05T02:45:51.574Z,25.10
2022-08-05T02:48:21.512Z,25.10
2022-08-05T02:51:02.170Z,25.10
2022-08-05T02:53:39.791Z,25.10
2022-08-05T02:56:16.074Z,25.10
2022-08-05T02:58:51.448Z,25.10
2022-08-05T03:01:29.798Z,25.10
2022-08-05T03:04:11.781Z,25.10
2022-08-05T03:06:56.393Z,25.10
2022-08-05T03:09:37.399Z,25.00
2022-08-05T03:12:06.707Z,25.00
2022-08-05T03:14:35.434Z,25.00
2022-08-05T03:17:13.219Z,25.00
2022-08-05T03:19:41.983Z,25.00
2022-08-05T03:22:16.850Z,25.00
2022-08-05T03:24:50.702Z,24.90
2022-08-05T03:27:20.276Z,24.60
2022-08-05T03:30:07.770Z,24.40
2022-08-05T03:32:35.439Z,24.40
2022-08-05T03:35:04.613Z,24.40
2022-08-05T03:37:45.894Z,24.40
2022-08-05T03:40:15.525Z,24.30
2022-08-05T03:42:52.895Z,24.40
2022-08-05T03:45:22.744Z,24.40
2022-08-05T03:47:51.654Z,24.40
2022-08-05T03:50:25.732Z,24.40
2022-08-05T03:55:54.209Z,24.50
2022-08-05T03:56:18.106Z,24.40
2022-08-05T03:58:59.019Z,24.50
2022-08-05T04:01:29.114Z,24.50
2022-08-05T04:04:10.259Z,24.50
2022-08-05T04:06:38.583Z,24.50
2022-08-05T04:09:20.424Z,24.50
2022-08-05T04:11:54.205Z,24.60
2022-08-05T04:14:30.344Z,24.60
2022-08-05T04:17:00.589Z,24.70
2022-08-05T04:19:29.633Z,24.70
2022-08-05T04:22:05.736Z,24.60
2022-08-05T04:24:44.587Z,24.70
2022-08-05T04:27:33.221Z,24.70
2022-08-05T04:30:09.125Z,24.70
2022-08-05T04:32:37.762Z,24.70
2022-08-05T04:35:07.297Z,24.70
2022-08-05T04:38:02.385Z,24.70
2022-08-05T04:40:38.756Z,24.70
2022-08-05T04:43:16.453Z,24.60
2022-08-05T04:45:48.803Z,24.60
2022-08-05T04:48:27.648Z,24.50
2022-08-05T04:51:03.593Z,24.50
2022-08-05T04:53:39.332Z,24.50
2022-08-05T04:56:33.268Z,24.50
2022-08-05T04:58:55.663Z,24.50
2022-08-05T05:02:05.971Z,24.50
2022-08-05T05:04:10.974Z,24.40
2022-08-05T05:06:44.838Z,24.50
2022-08-05T05:09:17.412Z,24.40
2022-08-05T05:11:55.616Z,24.50
2022-08-05T05:14:27.995Z,24.50
2022-08-05T05:17:00.488Z,24.50
2022-08-05T05:19:36.858Z,24.40
2022-08-05T05:22:24.618Z,24.40
2022-08-05T05:24:58.659Z,24.40
2022-08-05T05:27:41.339Z,24.40
2022-08-05T05:30:30.927Z,24.40
2022-08-05T05:33:08.850Z,24.40
2022-08-05T05:35:45.252Z,24.50
2022-08-05T05:38:14.245Z,24.40
2022-08-05T05:40:49.670Z,24.50
2022-08-05T05:43:27.573Z,24.60
2022-08-05T05:46:12.114Z,24.50
2022-08-05T05:48:44.384Z,24.60
2022-08-05T05:51:15.758Z,24.70
2022-08-05T05:53:54.479Z,24.80
2022-08-05T05:56:32.732Z,25.00
2022-08-05T05:59:07.607Z,25.30
2022-08-05T06:01:38.693Z,25.40
2022-08-05T06:04:12.786Z,25.50
2022-08-05T06:06:43.017Z,25.70
2022-08-05T06:09:17.505Z,25.90
2022-08-05T06:12:02.139Z,25.90
2022-08-05T06:14:34.699Z,26.00
2022-08-05T06:17:22.573Z,26.00
2022-08-05T06:19:57.150Z,26.00
2022-08-05T06:22:28.987Z,25.90
2022-08-05T06:24:56.582Z,25.70
2022-08-05T06:28:11.073Z,25.40
2022-08-05T06:30:18.129Z,25.40
2022-08-05T06:32:50.835Z,25.30
2022-08-05T06:36:03.943Z,25.30
2022-08-05T06:38:11.424Z,25.10
2022-08-05T06:40:44.623Z,25.00
2022-08-05T06:43:58.654Z,24.90
2022-08-05T06:46:06.724Z,24.80
2022-08-05T06:48:55.716Z,24.80
2022-08-05T06:51:30.150Z,24.60
2022-08-05T06:54:03.089Z,24.60
2022-08-05T06:56:33.365Z,24.60
2022-08-05T06:59:09.744Z,24.70
2022-08-05T07:01:40.736Z,24.70
2022-08-05T07:04:09.718Z,24.70
2022-08-05T07:06:37.275Z,24.80
2022-08-05T07:09:05.159Z,24.80
2022-08-05T07:11:36.790Z,25.10
2022-08-05T07:14:29.591Z,25.30
2022-08-05T07:18:01.493Z,25.30
2022-08-05T07:22:42.359Z,25.60
2022-08-05T07:25:22.561Z,25.80
2022-08-05T07:28:05.385Z,25.90
2022-08-05T07:30:38.298Z,26.10
2022-08-05T07:33:09.407Z,26.30
2022-08-05T07:36:01.813Z,26.50
2022-08-05T07:38:33.288Z,26.60
2022-08-05T07:42:09.070Z,26.90
2022-08-05T07:43:56.312Z,27.10
2022-08-05T07:46:26.662Z,27.10
2022-08-05T07:49:01.835Z,27.20
2022-08-05T07:51:36.949Z,27.30
2022-08-05T07:54:08.406Z,27.30
2022-08-05T07:57:00.182Z,27.20
2022-08-05T07:59:38.271Z,27.30
2022-08-05T08:02:16.771Z,27.50
2022-08-05T08:04:47.550Z,27.70
2022-08-05T08:07:16.489Z,27.80
2022-08-05T08:09:46.249Z,27.80
2022-08-05T08:12:37.283Z,27.70
2022-08-05T08:15:02.063Z,27.80
2022-08-05T08:17:31.138Z,27.70
2022-08-05T08:20:22.956Z,27.70
2022-08-05T08:22:55.615Z,27.80
2022-08-05T08:25:26.889Z,27.80
2022-08-05T08:28:18.773Z,27.90
2022-08-05T08:30:58.774Z,27.80
2022-08-05T08:33:27.997Z,27.80
2022-08-05T08:36:18.736Z,27.90
2022-08-05T08:38:42.770Z,27.90
2022-08-05T08:41:25.949Z,28.00
2022-08-05T08:45:19.347Z,28.20
2022-08-05T08:46:44.941Z,28.20
2022-08-05T08:50:23.111Z,28.20
2022-08-05T08:52:17.879Z,28.20
2022-08-05T08:54:45.342Z,28.20
2022-08-05T08:57:14.019Z,28.40
2022-08-05T08:59:47.117Z,28.50
2022-08-05T09:02:19.118Z,28.80
2022-08-05T09:05:16.971Z,29.30
2022-08-05T09:07:40.060Z,29.50
2022-08-05T09:10:27.702Z,29.50
2022-08-05T09:13:05.078Z,29.40
2022-08-05T09:15:37.008Z,29.10
2022-08-05T09:18:08.826Z,29.20
2022-08-05T09:20:38.181Z,29.10
2022-08-05T09:23:07.823Z,29.10
2022-08-05T09:26:02.659Z,29.20
2022-08-05T09:28:32.477Z,29.20
2022-08-05T09:31:43.241Z,29.10
2022-08-05T09:34:03.191Z,29.30
2022-08-05T09:36:55.158Z,29.40
2022-08-05T09:39:27.526Z,29.50
2022-08-05T09:42:07.903Z,29.40
2022-08-05T09:44:40.025Z,29.40
2022-08-05T09:47:22.169Z,29.30
2022-08-05T09:50:00.737Z,29.40
2022-08-05T09:52:34.917Z,29.60
2022-08-05T09:55:55.313Z,29.80
2022-08-05T09:57:54.673Z,30.10
2022-08-05T10:00:26.534Z,30.40
2022-08-05T10:02:54.948Z,30.50
2022-08-05T10:05:28.354Z,30.50
2022-08-05T10:08:36.917Z,30.40
2022-08-05T10:10:54.147Z,30.70
2022-08-05T10:13:47.160Z,30.70
2022-08-05T10:16:41.845Z,30.60
2022-08-05T10:19:23.797Z,30.90
2022-08-05T10:22:09.116Z,30.70
2022-08-05T10:24:43.372Z,30.80
2022-08-05T10:27:16.588Z,31.00
2022-08-05T10:30:06.892Z,31.20
2022-08-05T10:32:53.354Z,31.00
2022-08-05T10:35:20.030Z,31.00
2022-08-05T10:38:01.825Z,31.20
2022-08-05T10:40:52.120Z,31.70
2022-08-05T10:43:36.462Z,31.90
2022-08-05T10:46:07.206Z,32.10
2022-08-05T10:48:57.396Z,31.80
2022-08-05T10:51:53.233Z,32.10
2022-08-05T10:55:04.143Z,32.10
2022-08-05T10:57:32.337Z,32.30
2022-08-05T11:00:29.808Z,32.30
2022-08-05T11:03:23.529Z,32.50
2022-08-05T11:06:08.430Z,32.60
2022-08-05T11:09:32.073Z,32.60
2022-08-05T11:12:54.411Z,33.20
2022-08-05T11:15:59.434Z,33.40
2022-08-05T11:18:32.660Z,33.50
2022-08-05T11:21:11.762Z,33.40
2022-08-05T11:24:05.717Z,33.80
2022-08-05T11:26:43.156Z,33.80
2022-08-05T11:29:35.134Z,34.20
2022-08-05T11:32:30.445Z,34.00
2022-08-05T11:34:58.059Z,33.90
2022-08-05T11:38:28.578Z,34.40
2022-08-05T11:41:01.307Z,34.80
2022-08-05T11:44:05.215Z,34.70
2022-08-05T11:47:09.271Z,34.80
2022-08-05T11:49:34.088Z,35.40
2022-08-05T11:52:11.289Z,35.50
2022-08-05T11:54:40.378Z,35.80
2022-08-05T11:57:26.046Z,36.30
2022-08-05T11:59:54.868Z,36.80
2022-08-05T12:02:32.939Z,36.40
2022-08-05T12:05:07.117Z,35.50
2022-08-05T12:08:09.061Z,35.80
2022-08-05T12:10:38.424Z,36.00
2022-08-05T12:13:16.450Z,35.80
2022-08-05T12:15:49.880Z,35.30
2022-08-05T12:18:33.033Z,35.50
2022-08-05T12:21:11.498Z,35.60
2022-08-05T12:23:43.084Z,36.10
2022-08-05T12:26:10.683Z,36.30
2022-08-05T12:28:38.627Z,36.80
2022-08-05T12:31:06.043Z,37.60
2022-08-05T12:33:36.499Z,37.90
2022-08-05T12:36:08.146Z,37.80
2022-08-05T12:38:41.239Z,37.70
2022-08-05T12:41:13.967Z,37.40
2022-08-05T12:43:55.259Z,37.20
2022-08-05T12:46:29.394Z,37.40
2022-08-05T12:49:01.057Z,37.10
2022-08-05T12:52:10.672Z,36.80
2022-08-05T12:54:36.040Z,37.40
2022-08-05T12:57:09.419Z,37.80
2022-08-05T13:01:57.489Z,38.60
2022-08-05T13:02:40.027Z,39.20
2022-08-05T13:05:12.560Z,38.20
2022-08-05T13:08:00.669Z,38.40
2022-08-05T13:10:33.356Z,38.20
2022-08-05T13:13:06.339Z,38.10
2022-08-05T13:15:50.679Z,38.40
2022-08-05T13:18:20.155Z,38.50
2022-08-05T13:20:49.028Z,39.20
2022-08-05T13:23:18.305Z,39.00
2022-08-05T13:25:59.184Z,38.90
2022-08-05T13:28:27.969Z,38.70
2022-08-05T13:30:57.277Z,38.80
2022-08-05T13:34:22.895Z,39.80
2022-08-05T13:36:14.419Z,40.30
2022-08-05T13:38:43.231Z,39.20
2022-08-05T13:41:11.919Z,40.00
2022-08-05T13:43:45.131Z,40.60
2022-08-05T13:46:37.800Z,41.10
2022-08-05T13:49:11.986Z,40.70
2022-08-05T13:51:46.130Z,40.70
2022-08-05T13:54:16.419Z,40.70
2022-08-05T13:56:50.985Z,41.20
2022-08-05T13:59:24.963Z,41.90
2022-08-05T14:01:58.063Z,43.30
2022-08-05T14:05:11.462Z,43.40
2022-08-05T14:07:59.775Z,44.60
2022-08-05T14:10:30.959Z,45.80
2022-08-05T14:12:59.668Z,45.00
2022-08-05T14:16:06.971Z,44.60
2022-08-05T14:18:18.661Z,44.80
2022-08-05T14:20:54.455Z,46.30
2022-08-05T14:23:25.480Z,47.80
2022-08-05T14:25:58.115Z,47.90
2022-08-05T14:28:30.713Z,46.70
2022-08-05T14:30:59.388Z,43.60
2022-08-05T14:33:32.472Z,41.70
2022-08-05T14:36:15.551Z,40.00
2022-08-05T14:38:47.974Z,39.50
2022-08-05T14:41:17.672Z,38.50
2022-08-05T14:43:59.343Z,37.50
2022-08-05T14:46:31.510Z,37.10
2022-08-05T14:49:07.351Z,36.40
2022-08-05T14:51:42.484Z,36.00
2022-08-05T14:54:28.458Z,36.30
2022-08-05T14:56:58.176Z,38.00
2022-08-05T14:59:29.233Z,37.70
2022-08-05T15:02:02.878Z,38.70
2022-08-05T15:04:30.343Z,40.50
2022-08-05T15:06:58.218Z,42.80
2022-08-05T15:09:51.531Z,44.20
2022-08-05T15:12:26.961Z,45.50
2022-08-05T15:14:55.042Z,46.50
2022-08-05T15:17:47.439Z,45.90
2022-08-05T15:20:18.370Z,44.10
2022-08-05T15:22:52.401Z,43.30
2022-08-05T15:25:51.461Z,43.50
2022-08-05T15:28:14.395Z,44.30
2022-08-05T15:30:43.832Z,42.10
2022-08-05T15:33:13.445Z,40.30
2022-08-05T15:36:03.437Z,39.80
2022-08-05T15:38:36.541Z,40.10
2022-08-05T15:41:22.649Z,41.20
2022-08-05T15:43:54.886Z,42.00
2022-08-05T15:46:24.030Z,42.40
2022-08-05T15:49:00.681Z,43.20
2022-08-05T15:52:13.080Z,43.70
2022-08-05T15:54:17.763Z,42.20
2022-08-05T15:56:45.080Z,42.20
2022-08-05T15:59:22.373Z,42.30
2022-08-05T16:01:52.730Z,42.10
2022-08-05T16:04:25.581Z,42.00
2022-08-05T16:06:55.415Z,41.60
2022-08-05T16:09:24.122Z,41.90
2022-08-05T16:11:53.745Z,42.50
2022-08-05T16:14:22.425Z,41.10
2022-08-05T16:16:50.516Z,41.30
2022-08-05T16:19:25.368Z,40.30
2022-08-05T16:22:05.980Z,39.40
2022-08-05T16:24:40.743Z,39.30
2022-08-05T16:27:18.525Z,37.70
2022-08-05T16:29:50.860Z,36.40
2022-08-05T16:32:28.709Z,35.70
2022-08-05T16:34:57.207Z,35.40
2022-08-05T16:38:16.888Z,35.50
2022-08-05T16:40:13.575Z,35.70
2022-08-05T16:42:52.749Z,35.40
2022-08-05T16:46:03.613Z,35.10
2022-08-05T16:48:07.763Z,34.60
2022-08-05T16:50:37.848Z,33.90
2022-08-05T16:53:12.259Z,33.00
2022-08-05T16:55:50.237Z,32.60
2022-08-05T16:58:19.917Z,31.60
2022-08-05T17:00:48.149Z,31.00
2022-08-05T17:03:20.023Z,30.80
2022-08-05T17:05:53.935Z,30.50
2022-08-05T17:08:36.251Z,30.20
2022-08-05T17:11:17.814Z,30.10
2022-08-05T17:13:45.953Z,30.20
2022-08-05T17:16:29.668Z,30.10
2022-08-05T17:19:00.990Z,30.00
2022-08-05T17:21:35.572Z,29.80
2022-08-05T17:24:30.375Z,29.80
2022-08-05T17:26:57.885Z,29.50
2022-08-05T17:29:33.565Z,29.40
2022-08-05T17:32:16.792Z,29.40
2022-08-05T17:34:47.707Z,29.30
2022-08-05T17:37:39.416Z,29.20
2022-08-05T17:40:12.282Z,29.20
2022-08-05T17:42:41.676Z,29.20
2022-08-05T17:45:18.038Z,29.30
2022-08-05T17:47:53.595Z,29.10
2022-08-05T17:50:28.091Z,29.00
2022-08-05T17:53:02.281Z,29.00
2022-08-05T17:55:38.255Z,28.90
2022-08-05T17:58:14.545Z,28.90
2022-08-05T18:00:47.855Z,28.90
2022-08-05T18:06:11.797Z,28.60
2022-08-05T18:08:52.468Z,28.40
2022-08-05T18:11:23.953Z,28.30
2022-08-05T18:14:01.376Z,28.30
2022-08-05T18:16:31.707Z,28.20
2022-08-05T18:18:59.016Z,28.10
2022-08-05T18:21:28.188Z,28.10
2022-08-05T18:24:14.465Z,28.00
2022-08-05T18:26:42.036Z,27.80
2022-08-05T18:29:11.275Z,27.60
2022-08-05T18:31:42.950Z,27.50
2022-08-05T18:34:12.229Z,27.40
2022-08-05T18:36:41.304Z,27.30
2022-08-05T18:39:42.070Z,27.20
2022-08-05T18:42:06.252Z,27.10
2022-08-05T18:44:55.504Z,27.10
2022-08-05T18:47:26.904Z,27.00
2022-08-05T18:50:45.236Z,26.90
2022-08-05T18:53:20.467Z,26.80
2022-08-05T18:55:51.949Z,26.70
2022-08-05T18:58:22.174Z,26.70
2022-08-05T19:00:57.167Z,26.60
2022-08-05T19:03:53.117Z,26.50
2022-08-05T19:06:21.705Z,26.50
2022-08-05T19:08:49.837Z,26.50
2022-08-05T19:11:28.060Z,26.50
2022-08-05T19:14:01.149Z,26.40
2022-08-05T19:16:46.794Z,26.40
2022-08-05T19:19:14.820Z,26.40
2022-08-05T19:21:48.360Z,26.30
2022-08-05T19:24:18.865Z,26.30
2022-08-05T19:27:03.924Z,26.10
2022-08-05T19:29:35.910Z,25.90
2022-08-05T19:32:08.602Z,25.80
2022-08-05T19:34:39.222Z,25.70
2022-08-05T19:37:07.088Z,25.70
2022-08-05T19:39:45.568Z,25.50
2022-08-05T19:42:35.522Z,25.30
2022-08-05T19:45:06.009Z,25.30
2022-08-05T19:47:34.924Z,25.30
2022-08-05T19:50:07.546Z,25.20
2022-08-05T19:52:35.875Z,25.20
2022-08-05T19:55:06.977Z,25.20
2022-08-05T19:58:14.228Z,25.20
2022-08-05T20:00:38.611Z,25.00
2022-08-05T20:03:08.548Z,25.00
2022-08-05T20:05:49.947Z,24.90
2022-08-05T20:08:18.044Z,24.60
2022-08-05T20:10:45.250Z,24.40
2022-08-05T20:13:17.492Z,24.40
2022-08-05T20:15:51.796Z,24.30
2022-08-05T20:18:32.636Z,24.20
2022-08-05T20:21:04.675Z,24.10
2022-08-05T20:23:40.121Z,23.90
2022-08-05T20:26:20.798Z,23.80
2022-08-05T20:28:52.767Z,23.50
2022-08-05T20:31:28.796Z,23.30
2022-08-05T20:34:05.103Z,23.20
2022-08-05T20:36:32.712Z,23.00
2022-08-05T20:39:00.080Z,22.90
2022-08-05T20:41:43.932Z,22.90
2022-08-05T20:44:18.520Z,22.80
2022-08-05T20:46:57.381Z,22.70
2022-08-05T20:49:25.885Z,22.60
2022-08-05T20:51:54.643Z,22.50
2022-08-05T20:54:25.885Z,22.40
2022-08-05T20:57:11.132Z,22.30
2022-08-05T21:00:10.447Z,22.20
2022-08-05T21:02:29.433Z,22.10
2022-08-05T21:04:56.753Z,22.00
2022-08-05T21:07:24.676Z,21.80
2022-08-05T21:10:01.261Z,21.80
2022-08-05T21:12:28.604Z,21.70
2022-08-05T21:14:55.984Z,21.40
2022-08-05T21:17:27.115Z,21.10
2022-08-05T21:19:56.215Z,20.90
2022-08-05T21:22:26.430Z,20.80
2022-08-05T21:24:56.529Z,20.70
2022-08-05T21:27:27.510Z,20.70
2022-08-05T21:29:56.459Z,20.60
2022-08-05T21:32:28.552Z,20.60
2022-08-05T21:35:08.461Z,20.50
2022-08-05T21:37:47.320Z,20.30
2022-08-05T21:40:23.136Z,20.10
2022-08-05T21:42:52.613Z,20.00
2022-08-05T21:45:38.132Z,20.00
2022-08-05T21:48:09.624Z,19.90
2022-08-05T21:50:37.482Z,19.80
2022-08-05T21:53:16.327Z,19.70
2022-08-05T21:56:05.423Z,19.70
2022-08-05T21:58:32.304Z,19.70
2022-08-05T22:01:00.508Z,19.60
2022-08-05T22:03:51.691Z,19.60
2022-08-05T22:06:22.372Z,19.50
2022-08-05T22:08:52.496Z,19.50
2022-08-05T22:11:34.453Z,19.50
2022-08-05T22:14:20.002Z,19.60
2022-08-05T22:16:53.175Z,19.60
2022-08-05T22:20:01.116Z,19.50
2022-08-05T22:22:14.508Z,19.50
2022-08-05T22:25:01.497Z,19.60
2022-08-05T22:28:10.958Z,19.60
2022-08-05T22:30:35.449Z,19.70
2022-08-05T22:33:15.741Z,19.60
2022-08-05T22:35:48.525Z,19.50
2022-08-05T22:38:19.675Z,19.50
2022-08-05T22:40:49.489Z,19.40
2022-08-05T22:43:37.244Z,19.50
2022-08-05T22:46:13.215Z,19.40
2022-08-05T22:48:42.099Z,19.50
2022-08-05T22:51:15.954Z,19.50
2022-08-05T22:53:51.872Z,19.50
2022-08-05T22:56:30.397Z,19.50
2022-08-05T22:59:00.126Z,19.50
2022-08-05T23:02:03.815Z,19.70
2022-08-05T23:04:18.984Z,19.70
2022-08-05T23:06:47.776Z,19.70
2022-08-05T23:09:27.444Z,19.70
2022-08-05T23:12:03.510Z,19.70
2022-08-05T23:14:32.135Z,19.70
2022-08-05T23:17:24.372Z,19.60
2022-08-05T23:20:02.445Z,19.60
2022-08-05T23:22:31.046Z,19.50
2022-08-05T23:24:58.515Z,19.50
2022-08-05T23:27:28.892Z,19.60
2022-08-05T23:30:10.939Z,19.60
2022-08-05T23:32:40.765Z,19.60
2022-08-05T23:35:12.701Z,19.60
2022-08-05T23:37:39.968Z,19.50
2022-08-05T23:40:09.410Z,19.50
2022-08-05T23:42:38.300Z,19.50
2022-08-05T23:45:14.125Z,19.50
2022-08-05T23:47:47.990Z,19.50
2022-08-05T23:50:19.963Z,19.50
2022-08-05T23:52:49.765Z,19.40
2022-08-05T23:55:19.325Z,19.40
2022-08-05T23:57:49.099Z,19.20
